Time;durP1;ratioP1;P1;durP2;ratioP2;P2;SDS_P1;SDS_P2;PMS_P1;PMS_P2;Temp;Humidity;BMP_temperature;BMP_pressure;BME280_temperature;BME280_humidity;BME280_pressure;Samples;Min_cycle;Max_cycle;Signal;HPM_P1;HPM_P2
2023/01/16 00:01:37;;;;;;;3.65;3.45;;;;;;;4.62;100.00;99370.78;6124854;23;20029;-78
2023/01/16 00:04:04;;;;;;;3.60;3.50;;;;;;;4.57;100.00;99375.34;6119501;23;20018;-75
2023/01/16 00:06:31;;;;;;;3.67;3.58;;;;;;;4.19;100.00;99308.78;6135003;23;20318;-76
2023/01/16 00:08:57;;;;;;;3.95;3.75;;;;;;;3.60;100.00;99235.44;6081090;23;20737;-76
2023/01/16 00:11:24;;;;;;;3.40;3.30;;;;;;;3.04;100.00;99152.53;6135937;23;20252;-76
2023/01/16 00:13:50;;;;;;;3.28;3.17;;;;;;;3.98;100.00;99300.25;6105435;23;20025;-75
2023/01/16 00:16:18;;;;;;;4.20;4.00;;;;;;;3.92;100.00;99290.16;6111824;23;20488;-76
2023/01/16 00:18:45;;;;;;;3.58;3.47;;;;;;;3.43;100.00;99204.28;6075714;23;20029;-79
2023/01/16 00:21:12;;;;;;;3.30;3.20;;;;;;;3.68;100.00;99253.25;6126876;23;20022;-77
2023/01/16 00:23:38;;;;;;;3.78;3.58;;;;;;;3.57;100.00;99238.19;6107884;23;20428;-74
2023/01/16 00:26:06;;;;;;;3.40;3.30;;;;;;;3.88;100.00;99295.59;6150959;23;20275;-76
2023/01/16 00:28:33;;;;;;;3.97;3.78;;;;;;;3.54;100.00;99246.09;6132693;23;20082;-77
2023/01/16 00:30:59;;;;;;;3.30;3.20;;;;;;;3.55;100.00;99255.59;6113821;23;20076;-78
2023/01/16 00:33:26;;;;;;;4.35;3.95;;;;;;;3.73;100.00;99286.78;6129824;23;20032;-76
2023/01/16 00:35:53;;;;;;;3.33;3.20;;;;;;;3.51;100.00;99246.25;6111402;23;20055;-75
2023/01/16 00:38:19;;;;;;;3.67;3.50;;;;;;;2.24;100.00;99065.47;6135707;23;20087;-77
2023/01/16 00:40:45;;;;;;;3.42;3.33;;;;;;;3.42;100.00;99254.47;6144208;23;20490;-76
2023/01/16 00:43:12;;;;;;;4.47;4.00;;;;;;;3.00;100.00;99172.56;6131063;23;20021;-78
2023/01/16 00:45:39;;;;;;;3.20;3.10;;;;;;;3.28;100.00;99236.94;6111988;23;20025;-77
2023/01/16 00:48:06;;;;;;;3.65;3.50;;;;;;;3.08;100.00;99182.56;6104620;23;20040;-77
2023/01/16 00:50:33;;;;;;;3.88;3.67;;;;;;;3.23;100.00;99218.19;6121160;23;20053;-75
2023/01/16 00:52:59;;;;;;;3.10;3.00;;;;;;;2.79;100.00;99145.88;6143098;23;20028;-77
2023/01/16 00:55:26;;;;;;;3.83;3.58;;;;;;;2.98;100.00;99176.97;6120700;23;20563;-77
2023/01/16 00:57:53;;;;;;;3.78;3.42;;;;;;;2.57;100.00;99099.41;6094472;23;20035;-75
2023/01/16 01:00:21;;;;;;;3.47;3.38;;;;;;;3.57;100.00;99261.53;6118003;23;20133;-77
2023/01/16 01:02:50;;;;;;;3.70;3.50;;;;;;;2.88;100.00;99139.44;6105099;23;20768;-76
2023/01/16 01:05:17;;;;;;;3.17;3.08;;;;;;;3.44;100.00;99229.28;6089163;23;20009;-76
2023/01/16 01:07:44;;;;;;;3.17;3.08;;;;;;;3.55;100.00;99250.41;6104506;23;20487;-75
2023/01/16 01:10:10;;;;;;;3.20;3.10;;;;;;;3.37;100.00;99212.34;6104474;23;20078;-75
2023/01/16 01:12:37;;;;;;;3.00;2.90;;;;;;;3.33;100.00;99216.00;6128150;23;20027;-77
2023/01/16 01:15:04;;;;;;;3.25;3.15;;;;;;;2.93;100.00;99155.63;6108803;23;20037;-78
2023/01/16 01:17:31;;;;;;;3.20;3.10;;;;;;;3.33;100.00;99218.59;6069385;23;20524;-76
2023/01/16 01:19:57;;;;;;;3.10;3.00;;;;;;;3.52;100.00;99231.53;6115058;23;20033;-77
2023/01/16 01:22:24;;;;;;;3.30;3.20;;;;;;;3.53;100.00;99231.47;6108540;23;20133;-74
2023/01/16 01:24:50;;;;;;;3.10;3.00;;;;;;;3.40;100.00;99188.84;6117103;23;20013;-76
2023/01/16 01:27:16;;;;;;;3.38;3.28;;;;;;;3.18;100.00;99143.19;6133697;23;20054;-76
2023/01/16 01:29:43;;;;;;;3.05;2.95;;;;;;;2.03;100.00;98941.34;6108218;23;20035;-75
2023/01/16 01:32:09;;;;;;;2.90;2.80;;;;;;;3.87;100.00;99229.00;6139732;23;20044;-79
2023/01/16 01:34:36;;;;;;;3.17;3.08;;;;;;;3.74;100.00;99182.06;6082021;23;20424;-75
2023/01/16 01:37:07;;;;;;;2.90;2.80;;;;;;;4.08;100.00;99221.94;6143807;23;20601;-78
2023/01/16 01:39:38;;;;;;;3.17;3.08;;;;;;;3.94;100.00;99181.09;6137211;23;20072;-77
2023/01/16 01:44:55;;;;;;;3.65;3.45;;;;;;;4.12;100.00;99208.72;6112434;23;20047;-75
2023/01/16 01:47:28;;;;;;;3.30;3.20;;;;;;;4.09;100.00;99208.91;6105273;23;20030;-75
2023/01/16 01:49:57;;;;;;;3.08;2.97;;;;;;;3.45;100.00;99100.47;6104688;23;20098;-77
2023/01/16 01:52:25;;;;;;;3.70;3.50;;;;;;;3.57;100.00;99118.88;6090562;23;20021;-76
2023/01/16 01:54:59;;;;;;;3.50;3.20;;;;;;;4.15;100.00;99198.22;6139235;23;20032;-75
2023/01/16 01:57:30;;;;;;;3.30;3.20;;;;;;;3.54;100.00;99087.88;6137243;23;20420;-78
2023/01/16 02:00:03;;;;;;;2.92;2.83;;;;;;;2.72;100.00;98942.44;6146777;23;20016;-75
2023/01/16 02:02:35;;;;;;;3.40;3.20;;;;;;;4.21;100.00;99176.28;6135118;23;20431;-77
2023/01/16 02:05:06;;;;;;;3.15;3.05;;;;;;;4.20;100.00;99167.63;6118801;23;20062;-76
2023/01/16 02:07:34;;;;;;;3.28;3.17;;;;;;;4.00;100.00;99108.94;6143203;23;20029;-76
2023/01/16 02:10:29;;;;;;;3.10;3.00;;;;;;;4.25;100.00;99148.38;6114369;23;20140;-77
2023/01/16 02:12:55;;;;;;;3.20;3.10;;;;;;;4.13;100.00;99129.09;6125429;23;20022;-75
2023/01/16 02:15:23;;;;;;;3.50;3.20;;;;;;;3.89;100.00;99092.22;6112226;23;20033;-75
2023/01/16 02:20:53;;;;;;;3.08;2.97;;;;;;;4.25;100.00;99122.44;6114122;23;20032;-78
2023/01/16 02:23:38;;;;;;;3.30;3.20;;;;;;;4.16;100.00;99121.16;6100777;23;20085;-76
2023/01/16 02:26:25;;;;;;;3.08;2.97;;;;;;;4.05;100.00;99113.91;6104885;23;20018;-77
2023/01/16 02:29:21;;;;;;;3.17;3.08;;;;;;;3.91;100.00;99095.59;6110562;23;20077;-77
2023/01/16 02:32:12;;;;;;;3.05;2.95;;;;;;;3.78;100.00;99096.22;6116892;23;20088;-76
2023/01/16 02:35:04;;;;;;;3.17;3.08;;;;;;;3.63;100.00;99089.22;6124506;17;20029;-77
2023/01/16 02:37:53;;;;;;;3.10;3.00;;;;;;;3.35;100.00;99045.66;6144629;23;20032;-75
2023/01/16 02:40:31;;;;;;;3.28;3.17;;;;;;;3.42;100.00;99066.91;6114737;23;20563;-74
2023/01/16 02:43:42;;;;;;;3.10;3.00;;;;;;;3.29;100.00;99056.31;6144037;23;20079;-75
2023/01/16 02:46:19;;;;;;;3.10;3.00;;;;;;;2.76;100.00;98977.63;6091988;23;20095;-77
2023/01/16 02:49:33;;;;;;;3.20;3.10;;;;;;;3.23;100.00;99030.66;6091829;23;20053;-77
2023/01/16 02:52:14;;;;;;;;;;;;;;;3.09;100.00;99024.41;6089530;23;20589;-75
2023/01/16 02:54:52;;;;;;;3.25;3.05;;;;;;;3.00;100.00;99014.47;6119201;23;20416;-76
2023/01/16 02:57:21;;;;;;;2.90;2.80;;;;;;;2.96;100.00;99003.41;6083244;23;20025;-78
2023/01/16 02:59:49;;;;;;;3.10;3.00;;;;;;;3.02;100.00;98996.28;6113483;23;20468;-77
2023/01/16 03:02:15;;;;;;;3.10;3.00;;;;;;;2.73;100.00;98938.94;6085627;23;20030;-75
2023/01/16 03:04:47;;;;;;;2.83;2.72;;;;;;;3.03;100.00;98977.22;6110186;23;20023;-75
2023/01/16 03:07:38;;;;;;;3.00;2.90;;;;;;;3.07;100.00;98958.88;6075614;23;20023;-75
2023/01/16 03:10:29;;;;;;;3.10;3.00;;;;;;;3.14;100.00;98955.03;6106958;23;20022;-78
2023/01/16 03:13:24;;;;;;;3.10;3.00;;;;;;;2.54;100.00;98851.75;6075990;23;20029;-74
2023/01/16 03:16:28;;;;;;;3.03;2.92;;;;;;;3.19;100.00;98942.69;6108314;23;20033;-77
2023/01/16 03:19:11;;;;;;;2.80;2.70;;;;;;;3.11;100.00;98938.81;6050248;23;20022;-75
2023/01/16 03:21:46;;;;;;;3.08;2.97;;;;;;;2.99;100.00;98930.72;6114180;23;20025;-76
2023/01/16 03:24:36;;;;;;;3.08;2.97;;;;;;;2.72;100.00;98883.69;6090884;23;20082;-78
2023/01/16 03:27:28;;;;;;;2.90;2.80;;;;;;;2.47;100.00;98849.56;6115993;23;20048;-75
2023/01/16 03:30:13;;;;;;;3.00;2.90;;;;;;;1.93;100.00;98765.00;6087959;23;20045;-78
2023/01/16 03:32:49;;;;;;;2.90;2.80;;;;;;;2.72;100.00;98894.06;6119076;23;20037;-79
2023/01/16 03:35:48;;;;;;;3.05;2.95;;;;;;;2.64;100.00;98890.16;6060508;23;20513;-76
2023/01/16 03:38:18;;;;;;;3.20;3.05;;;;;;;2.07;100.00;98804.91;6084872;23;20455;-75
2023/01/16 03:40:47;;;;;;;3.03;2.92;;;;;;;2.55;100.00;98860.41;6050687;23;20480;-77
2023/01/16 03:43:21;;;;;;;2.97;2.88;;;;;;;2.64;100.00;98867.69;6082924;23;20022;-78
2023/01/16 03:45:54;;;;;;;3.20;3.10;;;;;;;2.48;100.00;98843.47;6057300;23;20069;-76
2023/01/16 03:48:42;;;;;;;3.20;3.10;;;;;;;2.64;100.00;98864.28;6044455;23;20103;-77
2023/01/16 03:51:15;;;;;;;4.00;3.83;;;;;;;2.51;100.00;98841.56;6023175;23;20026;-77
2023/01/16 03:54:05;;;;;;;2.90;2.80;;;;;;;2.65;100.00;98850.44;6050183;23;20167;-75
2023/01/16 03:56:40;;;;;;;3.40;3.30;;;;;;;2.69;100.00;98849.34;6027793;23;20034;-78
2023/01/16 03:59:07;;;;;;;3.00;2.90;;;;;;;2.67;100.00;98833.88;6028282;23;20039;-77
2023/01/16 04:01:53;;;;;;;3.20;3.10;;;;;;;2.78;100.00;98833.34;6026720;23;20022;-74
2023/01/16 04:04:45;;;;;;;3.35;3.25;;;;;;;2.68;100.00;98814.00;6058595;23;20100;-78
2023/01/16 04:07:34;;;;;;;2.90;2.80;;;;;;;2.84;100.00;98812.31;6030307;23;20110;-75
2023/01/16 04:10:09;;;;;;;3.10;3.00;;;;;;;2.77;100.00;98793.66;6013326;23;20093;-76
2023/01/16 04:12:42;;;;;;;3.10;3.00;;;;;;;2.90;100.00;98783.50;6061219;23;20022;-74
2023/01/16 04:15:09;;;;;;;;;;;;;;;2.83;100.00;98776.97;6052331;23;20018;-75
2023/01/16 04:17:39;;;;;;;2.90;2.80;;;;;;;2.73;100.00;98757.63;6057132;23;20325;-75
2023/01/16 04:20:07;;;;;;;3.00;2.90;;;;;;;2.66;100.00;98746.75;6051263;23;20035;-78
2023/01/16 04:22:34;;;;;;;3.15;3.05;;;;;;;2.72;100.00;98748.19;6079609;23;20014;-76
2023/01/16 04:25:05;;;;;;;2.88;2.78;;;;;;;2.32;100.00;98683.72;6034706;23;20030;-75
2023/01/16 04:27:32;;;;;;;4.03;3.65;;;;;;;2.67;100.00;98727.72;6083287;23;20079;-77
2023/01/16 04:29:58;;;;;;;2.90;2.80;;;;;;;2.68;100.00;98719.00;6079298;23;20039;-74
2023/01/16 04:32:25;;;;;;;3.00;2.90;;;;;;;2.30;100.00;98636.38;6059320;23;20033;-76
2023/01/16 04:34:51;;;;;;;3.10;3.00;;;;;;;2.63;100.00;98650.25;6050710;23;20097;-77
2023/01/16 04:37:18;;;;;;;2.65;2.55;;;;;;;2.98;100.00;98680.28;6075958;23;20021;-76
2023/01/16 04:39:46;;;;;;;2.90;2.80;;;;;;;2.97;100.00;98662.25;6057678;23;20105;-76
2023/01/16 04:42:13;;;;;;;3.47;3.38;;;;;;;3.11;100.00;98679.66;6110532;23;20108;-76
2023/01/16 04:44:39;;;;;;;3.25;3.15;;;;;;;0.90;100.00;98301.47;6075284;23;20623;-76
2023/01/16 04:47:06;;;;;;;3.00;2.90;;;;;;;2.95;100.00;98617.47;6087011;23;20016;-75
2023/01/16 04:49:32;;;;;;;3.47;3.33;;;;;;;2.82;100.00;98593.13;6106140;23;20020;-77
2023/01/16 04:51:59;;;;;;;3.05;2.95;;;;;;;3.19;100.00;98628.22;6080191;23;20486;-78
2023/01/16 04:54:25;;;;;;;3.10;3.00;;;;;;;3.07;100.00;98590.88;6108636;23;20021;-76
2023/01/16 04:56:52;;;;;;;3.00;2.90;;;;;;;3.23;100.00;98602.94;6081199;23;20576;-75
2023/01/16 04:59:18;;;;;;;3.15;3.05;;;;;;;2.74;100.00;98536.56;6087747;23;20029;-77
2023/01/16 05:01:45;;;;;;;2.80;2.70;;;;;;;3.51;100.00;98623.00;6080535;23;20012;-77
2023/01/16 05:04:13;;;;;;;3.00;2.90;;;;;;;3.55;100.00;98614.13;6107882;23;20017;-77
2023/01/16 05:06:40;;;;;;;3.03;2.92;;;;;;;2.85;100.00;98486.75;6092810;23;20030;-77
2023/01/16 05:09:07;;;;;;;2.90;2.80;;;;;;;3.33;100.00;98578.22;6095207;23;20036;-75
2023/01/16 05:11:34;;;;;;;3.30;3.20;;;;;;;3.42;100.00;98580.25;6112834;23;20577;-76
2023/01/16 05:14:01;;;;;;;3.15;2.97;;;;;;;3.50;100.00;98580.66;6086096;23;20023;-74
2023/01/16 05:16:28;;;;;;;3.10;3.00;;;;;;;3.68;100.00;98598.69;6101256;23;20014;-76
2023/01/16 05:18:54;;;;;;;3.17;3.08;;;;;;;3.67;100.00;98590.09;6079893;23;20018;-75
2023/01/16 05:21:21;;;;;;;3.20;3.10;;;;;;;3.12;100.00;98499.91;6109570;23;20022;-76
2023/01/16 05:23:47;;;;;;;3.38;3.17;;;;;;;2.95;100.00;98462.00;6077681;23;20049;-76
2023/01/16 05:26:13;;;;;;;3.08;2.97;;;;;;;3.38;100.00;98524.31;6079020;23;20020;-76
2023/01/16 05:28:40;;;;;;;3.17;3.08;;;;;;;2.23;100.00;98319.31;6115438;23;20029;-77
2023/01/16 05:31:07;;;;;;;2.90;2.80;;;;;;;3.78;100.00;98556.56;6083287;23;20025;-75
2023/01/16 05:33:33;;;;;;;3.30;3.20;;;;;;;3.89;100.00;98542.97;6106050;23;20017;-76
2023/01/16 05:36:00;;;;;;;3.17;3.08;;;;;;;3.92;100.00;98542.75;6102854;23;20081;-78
2023/01/16 05:38:26;;;;;;;3.30;3.20;;;;;;;3.78;100.00;98506.44;6063285;23;20026;-75
2023/01/16 05:40:53;;;;;;;3.10;3.00;;;;;;;3.40;100.00;98462.84;6109506;23;20020;-75
2023/01/16 05:43:20;;;;;;;3.00;2.90;;;;;;;3.93;100.00;98533.22;6067274;23;20243;-75
2023/01/16 05:45:46;;;;;;;3.00;2.90;;;;;;;3.92;100.00;98522.00;6088753;23;20002;-75
2023/01/16 05:48:13;;;;;;;3.10;3.00;;;;;;;3.95;100.00;98508.03;6106159;23;20123;-76
2023/01/16 05:50:39;;;;;;;3.10;3.00;;;;;;;4.04;100.00;98527.41;6082897;23;20641;-76
2023/01/16 05:53:06;;;;;;;3.30;3.20;;;;;;;4.07;100.00;98512.47;6049618;23;20014;-77
2023/01/16 05:55:44;;;;;;;3.05;2.95;;;;;;;3.36;100.00;98404.31;6089516;23;20029;-76
2023/01/16 05:58:11;;;;;;;3.20;3.10;;;;;;;4.06;100.00;98504.78;6055886;23;20613;-75
2023/01/16 06:00:39;;;;;;;3.00;2.90;;;;;;;3.39;100.00;98399.78;6082604;23;20053;-77
2023/01/16 06:03:07;;;;;;;2.80;2.70;;;;;;;3.68;100.00;98441.28;6107416;23;20044;-75
2023/01/16 06:05:34;;;;;;;3.22;3.13;;;;;;;4.07;100.00;98498.63;6061951;23;20018;-75
2023/01/16 06:08:01;;;;;;;3.05;2.95;;;;;;;4.04;100.00;98488.47;6113297;23;20013;-80
2023/01/16 06:10:30;;;;;;;3.53;3.33;;;;;;;4.02;100.00;98480.75;6073133;23;20092;-74
2023/01/16 06:12:57;;;;;;;3.13;3.03;;;;;;;3.51;100.00;98400.81;6109659;23;20021;-76
2023/01/16 06:15:23;;;;;;;3.20;3.10;;;;;;;4.10;100.00;98475.09;6112273;23;20084;-75
2023/01/16 06:17:52;;;;;;;2.90;2.80;;;;;;;3.36;100.00;98362.84;6092621;23;20279;-76
2023/01/16 06:20:18;;;;;;;3.33;3.22;;;;;;;3.82;100.00;98424.91;6109354;23;20459;-78
2023/01/16 06:22:45;;;;;;;3.00;2.90;;;;;;;4.12;100.00;98448.13;6086613;23;20042;-75
2023/01/16 06:25:12;;;;;;;2.85;2.75;;;;;;;4.22;100.00;98444.97;6105578;23;20045;-77
2023/01/16 06:27:38;;;;;;;3.10;3.00;;;;;;;3.83;100.00;98384.22;6089480;23;20037;-78
2023/01/16 06:30:06;;;;;;;3.30;3.20;;;;;;;4.25;100.00;98414.47;6110041;23;20010;-77
2023/01/16 06:32:35;;;;;;;3.22;3.13;;;;;;;4.28;100.00;98411.66;6054966;23;20351;-75
2023/01/16 06:35:02;;;;;;;3.10;3.00;;;;;;;4.28;100.00;98418.63;6119103;23;20601;-78
2023/01/16 06:37:29;;;;;;;3.53;3.33;;;;;;;4.28;100.00;98418.63;6065477;23;20061;-77
2023/01/16 06:39:56;;;;;;;3.00;2.90;;;;;;;4.29;100.00;98408.16;6095995;23;20089;-75
2023/01/16 06:42:23;;;;;;;3.22;3.13;;;;;;;3.98;100.00;98354.72;6064873;23;20029;-76
2023/01/16 06:44:49;;;;;;;3.17;3.08;;;;;;;4.31;100.00;98400.22;6110637;23;20034;-75
2023/01/16 06:47:16;;;;;;;3.20;3.10;;;;;;;4.30;100.00;98373.44;6067649;23;20018;-75
2023/01/16 06:49:43;;;;;;;3.10;3.00;;;;;;;4.29;100.00;98363.16;6095894;23;20030;-76
2023/01/16 06:52:09;;;;;;;3.22;3.08;;;;;;;4.34;100.00;98361.94;6066638;23;20377;-79
2023/01/16 06:54:36;;;;;;;3.20;3.10;;;;;;;3.89;100.00;98293.88;6106576;23;20021;-77
2023/01/16 06:57:03;;;;;;;3.20;3.10;;;;;;;4.19;100.00;98339.56;6104796;23;20089;-75
2023/01/16 06:59:29;;;;;;;3.45;3.33;;;;;;;4.30;100.00;98370.84;6115386;23;20037;-75
2023/01/16 07:01:55;;;;;;;3.75;3.58;;;;;;;4.29;100.00;98356.22;6066445;23;20128;-76
2023/01/16 07:04:23;;;;;;;3.58;3.40;;;;;;;3.86;100.00;98267.28;6089797;23;20120;-76
2023/01/16 07:06:50;;;;;;;3.10;3.00;;;;;;;4.38;100.00;98345.22;6087292;23;20033;-74
2023/01/16 07:09:17;;;;;;;2.95;2.85;;;;;;;4.37;100.00;98335.78;6106022;23;20017;-77
2023/01/16 07:11:43;;;;;;;4.13;3.30;;;;;;;4.29;100.00;98306.88;6057728;23;20021;-74
2023/01/16 07:22:35;;;;;;;4.32;3.50;;;;;;;4.45;100.00;98280.75;6108233;23;20021;-75
2023/01/16 07:25:15;;;;;;;3.95;3.75;;;;;;;4.53;100.00;98283.66;6062107;23;20384;-74
2023/01/16 07:27:45;;;;;;;3.10;3.00;;;;;;;4.49;100.00;98261.44;6078400;23;20022;-76
2023/01/16 07:30:12;;;;;;;3.92;3.20;;;;;;;3.39;100.00;98072.31;6089506;23;20597;-77
2023/01/16 07:32:39;;;;;;;4.63;3.25;;;;;;;4.58;100.00;98257.38;6112445;23;20073;-76
2023/01/16 07:35:07;;;;;;;3.40;3.30;;;;;;;4.55;100.00;98245.44;6067729;23;20512;-76
2023/01/16 07:37:34;;;;;;;3.40;3.30;;;;;;;4.43;100.00;98227.22;6059363;23;20089;-75
2023/01/16 07:40:00;;;;;;;3.67;2.95;;;;;;;4.40;100.00;98210.91;6056848;23;20096;-74
2023/01/16 07:42:27;;;;;;;3.72;3.53;;;;;;;4.67;100.00;98219.56;6080773;23;20077;-73
2023/01/16 07:44:53;;;;;;;3.58;3.47;;;;;;;4.66;100.00;98218.72;6033752;23;20006;-74
2023/01/16 07:47:20;;;;;;;3.10;3.00;;;;;;;4.64;100.00;98207.63;6049156;23;20507;-73
2023/01/16 07:49:46;;;;;;;3.65;3.55;;;;;;;4.60;100.00;98206.97;6053820;23;20016;-73
2023/01/16 07:52:13;;;;;;;3.17;3.08;;;;;;;4.45;100.00;98212.38;6036569;23;20488;-72
2023/01/16 07:54:41;;;;;;;3.35;3.25;;;;;;;4.50;100.00;98179.97;6055677;23;20316;-73
2023/01/16 07:57:08;;;;;;;4.10;3.80;;;;;;;4.48;100.00;98186.22;6029972;23;20038;-72
2023/01/16 07:59:37;;;;;;;3.40;3.30;;;;;;;4.40;100.00;98176.34;6072489;23;20147;-72
2023/01/16 08:02:03;;;;;;;3.38;3.28;;;;;;;4.10;100.00;98133.31;6055980;23;20034;-73
2023/01/16 08:04:30;;;;;;;3.80;3.60;;;;;;;4.20;100.00;98155.13;6075791;23;20062;-74
2023/01/16 08:06:58;;;;;;;3.28;3.15;;;;;;;4.32;100.00;98150.06;6047703;23;20019;-75
2023/01/16 08:09:24;;;;;;;3.40;3.30;;;;;;;4.34;100.00;98143.00;6081696;23;20014;-75
2023/01/16 08:11:51;;;;;;;3.40;3.30;;;;;;;4.36;100.00;98148.91;6053005;23;20051;-74
2023/01/16 08:14:17;;;;;;;3.40;3.30;;;;;;;4.23;100.00;98109.13;6036826;23;20282;-74
2023/01/16 08:16:44;;;;;;;3.30;3.20;;;;;;;4.33;100.00;98116.22;6053670;23;20042;-74
2023/01/16 08:19:10;;;;;;;3.17;3.08;;;;;;;4.47;100.00;98137.78;6065010;23;20027;-73
2023/01/16 08:21:37;;;;;;;3.65;3.50;;;;;;;4.03;100.00;98035.22;6056585;23;20014;-73
2023/01/16 08:24:04;;;;;;;3.72;3.47;;;;;;;4.55;100.00;98119.91;6044252;23;20013;-73
2023/01/16 08:26:31;;;;;;;3.33;3.22;;;;;;;4.57;100.00;98102.47;6084371;23;20043;-74
2023/01/16 08:28:58;;;;;;;3.00;2.90;;;;;;;4.46;100.00;98079.84;6039536;23;20009;-74
2023/01/16 08:31:25;;;;;;;3.30;3.20;;;;;;;4.51;100.00;98080.38;6080597;23;20034;-74
2023/01/16 08:33:51;;;;;;;3.28;3.17;;;;;;;4.59;100.00;98096.25;6032415;23;20019;-75
2023/01/16 08:36:20;;;;;;;3.40;3.25;;;;;;;4.25;100.00;98042.38;6081399;23;20010;-74
2023/01/16 08:38:48;;;;;;;3.42;3.22;;;;;;;4.56;100.00;98069.66;6107043;23;20223;-74
2023/01/16 08:52:43;;;;;;;3.50;3.22;;;;;;;4.52;100.00;98073.41;6079836;23;20028;-73
2023/01/16 08:55:09;;;;;;;3.55;3.40;;;;;;;4.66;100.00;98060.25;6081584;23;20571;-73
2023/01/16 08:57:36;;;;;;;3.38;3.28;;;;;;;4.64;100.00;98054.34;6080437;23;20527;-74
2023/01/16 09:00:05;;;;;;;3.40;3.20;;;;;;;3.97;100.00;97943.91;6072152;23;20021;-75
2023/01/16 09:02:34;;;;;;;3.40;3.30;;;;;;;4.65;100.00;98047.38;6108006;23;20038;-73
2023/01/16 09:05:00;;;;;;;3.20;3.10;;;;;;;4.64;100.00;98037.94;6059364;23;20022;-72
2023/01/16 09:07:28;;;;;;;3.92;3.70;;;;;;;4.21;100.00;97969.09;6109305;23;20073;-74
2023/01/16 09:09:55;;;;;;;3.20;3.10;;;;;;;4.58;100.00;98023.63;6054664;23;20021;-72
2023/01/16 09:15:27;;;;;;;3.50;3.40;;;;;;;3.87;100.00;97926.47;5998811;23;20170;-73
2023/01/16 09:17:53;;;;;;;3.30;3.20;;;;;;;4.32;100.00;97987.31;6019394;23;20039;-74
2023/01/16 09:20:20;;;;;;;3.50;3.40;;;;;;;4.47;100.00;98010.53;6049320;23;20111;-73
2023/01/16 09:22:46;;;;;;;3.30;3.20;;;;;;;4.10;100.00;97940.44;6079129;23;20022;-76
2023/01/16 09:25:13;;;;;;;3.47;3.38;;;;;;;4.57;100.00;98016.75;6081043;23;20453;-76
2023/01/16 09:27:46;;;;;;;3.25;3.15;;;;;;;3.96;100.00;97905.91;6111191;23;20086;-72
2023/01/16 09:30:12;;;;;;;3.55;3.40;;;;;;;4.08;100.00;97931.94;6080260;23;20061;-74
2023/01/16 09:32:39;;;;;;;3.20;3.10;;;;;;;4.08;100.00;97927.56;6107019;23;20049;-73
2023/01/16 09:35:06;;;;;;;3.40;3.30;;;;;;;4.33;100.00;97957.84;6060445;23;20081;-75
2023/01/16 09:37:32;;;;;;;3.30;3.20;;;;;;;4.19;100.00;97943.22;6074820;23;20022;-74
2023/01/16 09:39:59;;;;;;;3.72;3.53;;;;;;;4.17;100.00;97936.50;6054680;23;20022;-74
2023/01/16 09:45:28;;;;;;;3.58;3.47;;;;;;;4.63;100.00;97987.75;6073808;23;20312;-72
2023/01/16 09:48:01;;;;;;;3.22;3.13;;;;;;;4.47;100.00;97993.22;6053878;23;20049;-74
2023/01/16 09:50:42;;;;;;;3.70;3.60;;;;;;;4.15;100.00;97927.97;6076270;23;20451;-74
2023/01/16 09:59:01;;;;;;;3.25;3.13;;;;;;;4.20;100.00;97933.66;6078952;23;20030;-75
2023/01/16 10:01:43;;;;;;;3.28;3.17;;;;;;;4.48;100.00;97968.06;6056837;23;20035;-73
2023/01/16 10:04:19;;;;;;;3.38;3.28;;;;;;;4.55;100.00;97982.25;6077746;23;20186;-74
2023/01/16 10:07:02;;;;;;;3.30;3.20;;;;;;;4.57;100.00;97975.19;6059061;23;20030;-73
2023/01/16 10:09:48;;;;;;;4.10;3.80;;;;;;;4.59;100.00;97961.19;6049085;23;20014;-74
2023/01/16 10:12:14;;;;;;;3.80;3.60;;;;;;;4.65;100.00;97974.66;6057906;23;20087;-74
2023/01/16 10:14:57;;;;;;;3.10;3.00;;;;;;;4.68;100.00;97961.44;6028313;23;20455;-73
2023/01/16 10:17:40;;;;;;;3.47;3.38;;;;;;;3.99;100.00;97850.41;6075764;23;20030;-75
2023/01/16 10:20:29;;;;;;;3.72;3.53;;;;;;;4.75;100.00;97945.31;6081369;23;20201;-73
2023/01/16 10:23:17;;;;;;;3.20;3.10;;;;;;;4.74;100.00;97943.66;6049625;23;20080;-72
2023/01/16 10:25:54;;;;;;;3.22;3.13;;;;;;;4.64;100.00;97926.25;6074583;23;20237;-73
2023/01/16 10:28:48;;;;;;;3.28;3.17;;;;;;;4.74;100.00;97928.06;6063032;23;20421;-74
2023/01/16 10:31:40;;;;;;;3.22;3.13;;;;;;;4.75;100.00;97916.75;6055850;23;20093;-75
2023/01/16 10:34:25;;;;;;;3.30;3.20;;;;;;;3.87;100.00;97787.22;6073919;23;20017;-72
2023/01/16 10:36:59;;;;;;;3.30;3.20;;;;;;;4.66;100.00;97912.19;6108233;23;20038;-73
2023/01/16 10:39:31;;;;;;;3.25;3.15;;;;;;;4.90;100.00;97934.75;6088765;23;20018;-73
2023/01/16 10:50:46;;;;;;;3.22;3.13;;;;;;;4.82;100.00;97891.13;6105840;23;20451;-72
2023/01/16 10:53:14;;;;;;;3.17;3.08;;;;;;;4.69;100.00;97866.97;6056345;23;20124;-73
2023/01/16 10:55:44;;;;;;;3.38;3.28;;;;;;;4.86;100.00;97876.97;6081791;23;20034;-73
2023/01/16 10:58:28;;;;;;;5.03;4.82;;;;;;;5.02;100.00;97888.84;6079617;23;20041;-74
2023/01/16 11:01:10;;;;;;;3.47;3.38;;;;;;;5.13;100.00;97881.03;6108569;23;20490;-73
2023/01/16 11:03:41;;;;;;;;;;;;;;;5.25;100.00;97881.88;6081680;23;20275;-73
2023/01/16 11:06:19;;;;;;;3.35;3.25;;;;;;;4.83;100.00;97819.19;6064948;23;19929;-75
2023/01/16 11:08:53;;;;;;;3.28;3.17;;;;;;;5.11;99.99;97834.38;6077141;23;20077;-72
2023/01/16 11:20:30;;;;;;;3.35;3.25;;;;;;;5.00;99.19;97818.75;6107331;23;20074;-74
2023/01/16 11:23:13;;;;;;;3.33;3.17;;;;;;;4.57;100.00;97751.84;6076656;23;20104;-76
2023/01/16 11:25:40;;;;;;;3.20;3.10;;;;;;;4.90;100.00;97817.81;6082536;23;20355;-73
2023/01/16 11:28:12;;;;;;;3.30;3.20;;;;;;;3.07;100.00;97507.81;6111362;23;20050;-75
2023/01/16 11:30:43;;;;;;;3.20;3.10;;;;;;;4.91;100.00;97807.31;6079584;23;20460;-75
2023/01/16 11:33:16;;;;;;;3.45;3.35;;;;;;;4.84;100.00;97777.50;6083029;23;20014;-72
2023/01/16 11:35:52;;;;;;;3.30;3.20;;;;;;;4.88;100.00;97772.91;6082251;23;20017;-74
2023/01/16 11:38:19;;;;;;;3.05;2.95;;;;;;;5.09;100.00;97788.63;6110376;23;20023;-73
2023/01/16 11:40:50;;;;;;;3.28;3.17;;;;;;;5.00;100.00;97778.00;6063509;23;20029;-73
2023/01/16 11:46:31;;;;;;;3.42;3.33;;;;;;;5.15;100.00;97769.97;6115126;23;20009;-75
2023/01/16 11:49:03;;;;;;;3.47;3.28;;;;;;;4.85;100.00;97713.38;6084753;23;20025;-74
2023/01/16 11:51:32;;;;;;;3.53;3.42;;;;;;;5.33;100.00;97758.16;6112814;23;20017;-71
2023/01/16 11:54:01;;;;;;;4.00;3.80;;;;;;;5.30;100.00;97753.19;6080874;23;20010;-75
2023/01/16 11:56:57;;;;;;;3.35;3.25;;;;;;;4.95;100.00;97690.94;6079429;23;20138;-73
2023/01/16 11:59:32;;;;;;;3.60;3.50;;;;;;;5.40;100.00;97742.91;6103596;23;20781;-76
2023/01/16 12:02:16;;;;;;;3.50;3.30;;;;;;;5.44;100.00;97735.69;6083627;23;20774;-72
2023/01/16 12:08:06;;;;;;;3.30;3.17;;;;;;;5.23;100.00;97714.78;6107244;23;20029;-74
2023/01/16 12:10:43;;;;;;;3.40;3.30;;;;;;;5.16;100.00;97702.25;6079524;23;20022;-73
2023/01/16 12:16:00;;;;;;;3.20;3.10;;;;;;;5.11;100.00;97686.22;6113303;23;20021;-74
2023/01/16 12:18:46;;;;;;;3.58;3.47;;;;;;;5.21;100.00;97696.69;6073608;23;20032;-71
2023/01/16 12:21:29;;;;;;;3.30;3.20;;;;;;;5.05;100.00;97658.09;6113561;23;20033;-73
2023/01/16 12:24:24;;;;;;;3.30;3.20;;;;;;;5.17;100.00;97658.88;6086232;23;20010;-71
2023/01/16 12:27:05;;;;;;;3.30;3.20;;;;;;;5.06;100.00;97625.97;6073223;23;20097;-71
2023/01/16 12:30:26;;;;;;;3.25;3.15;;;;;;;5.26;100.00;97658.19;6070040;23;20030;-73
2023/01/16 12:33:09;;;;;;;3.30;3.20;;;;;;;5.05;100.00;97608.72;5995410;23;20030;-73
2023/01/16 12:35:58;;;;;;;3.80;3.60;;;;;;;5.26;100.00;97641.75;6077779;23;20040;-75
2023/01/16 12:38:36;;;;;;;3.30;3.20;;;;;;;5.27;100.00;97633.00;6084021;23;20588;-76
2023/01/16 12:44:13;;;;;;;4.68;3.63;;;;;;;5.34;100.00;97614.19;6079615;23;20047;-73
2023/01/16 12:47:04;;;;;;;3.42;3.33;;;;;;;5.14;100.00;97556.00;6083301;23;20030;-74
2023/01/16 12:49:47;;;;;;;3.42;3.33;;;;;;;5.43;100.00;97602.22;6083188;23;20025;-75
2023/01/16 12:52:43;;;;;;;3.38;3.28;;;;;;;4.88;100.00;97507.88;6116447;23;20021;-74
2023/01/16 12:55:25;;;;;;;3.25;3.08;;;;;;;5.28;100.00;97574.88;6077583;23;20029;-73
2023/01/16 12:58:18;;;;;;;3.58;3.45;;;;;;;4.84;100.00;97532.47;6088839;23;20025;-75
2023/01/16 13:00:53;;;;;;;3.40;3.30;;;;;;;4.67;100.00;97487.88;6077144;23;20520;-74
2023/01/16 13:03:39;;;;;;;3.42;3.33;;;;;;;5.22;100.00;97552.78;6077997;23;20036;-72
2023/01/16 13:06:13;;;;;;;3.25;3.15;;;;;;;4.66;100.00;97478.41;6087827;23;20459;-73